Time;durP1;ratioP1;P1;durP2;ratioP2;P2;SDS_P1;SDS_P2;PMS_P1;PMS_P2;Temp;Humidity;BMP_temperature;BMP_pressure;BME280_temperature;BME280_humidity;BME280_pressure;Samples;Min_cycle;Max_cycle;Signal;HPM_P1;HPM_P2
2022/09/14 00:00:35;;;;;;;3.58;2.30;;;;;;;16.64;100.00;92374.19;2137459;27;20019;-67
2022/09/14 00:01:39;;;;;;;4.80;2.00;;;;;;;16.63;100.00;92376.13;2140097;27;20022;-67
2022/09/14 00:02:39;;;;;;;4.28;1.80;;;;;;;16.65;100.00;92374.94;2136965;27;20386;-67
2022/09/14 00:03:41;;;;;;;5.28;1.95;;;;;;;16.63;100.00;92373.44;2136557;27;20023;-67
2022/09/14 00:04:42;;;;;;;2.05;1.85;;;;;;;16.58;100.00;92363.31;2138265;27;20031;-67
2022/09/14 00:05:43;;;;;;;3.17;2.20;;;;;;;16.56;100.00;92363.06;2137645;27;20099;-67
2022/09/14 00:06:44;;;;;;;4.00;2.17;;;;;;;16.55;100.00;92361.56;2137968;27;20023;-68
2022/09/14 00:07:45;;;;;;;4.00;1.70;;;;;;;16.58;100.00;92357.91;2137538;27;20030;-67
2022/09/14 00:08:50;;;;;;;2.78;1.95;;;;;;;16.55;100.00;92356.19;2137346;27;20061;-67
2022/09/14 00:09:51;;;;;;;3.28;1.80;;;;;;;16.53;100.00;92360.56;2137742;27;20026;-67
2022/09/14 00:10:52;;;;;;;5.03;1.90;;;;;;;16.53;100.00;92358.59;2139568;27;20067;-68
2022/09/14 00:11:54;;;;;;;3.03;1.60;;;;;;;16.64;100.00;92360.69;2125177;27;20724;-67
2022/09/14 00:12:55;;;;;;;1.92;1.73;;;;;;;16.55;100.00;92361.56;2129279;27;20047;-67
2022/09/14 00:13:58;;;;;;;3.88;1.80;;;;;;;16.51;100.00;92358.34;2136471;27;20030;-69
2022/09/14 00:14:58;;;;;;;3.00;1.98;;;;;;;16.50;100.00;92358.78;2130379;27;20042;-67
2022/09/14 00:16:05;;;;;;;2.67;1.85;;;;;;;16.74;100.00;92364.03;2127583;27;20741;-68
2022/09/14 00:17:06;;;;;;;3.05;1.73;;;;;;;16.69;100.00;92364.69;2136538;27;20026;-67
2022/09/14 00:18:09;;;;;;;7.10;2.00;;;;;;;16.58;100.00;92365.28;2123263;27;20023;-67
2022/09/14 00:19:18;;;;;;;5.45;1.80;;;;;;;16.54;100.00;92360.06;2125145;27;20105;-67
2022/09/14 00:20:19;;;;;;;4.63;1.83;;;;;;;16.47;100.00;92352.41;2137356;27;20387;-68
2022/09/14 00:21:21;;;;;;;4.65;2.00;;;;;;;16.38;100.00;92349.09;2134712;27;20030;-66
2022/09/14 00:22:22;;;;;;;2.00;1.80;;;;;;;16.33;100.00;92353.19;2137065;27;20050;-67
2022/09/14 00:23:23;;;;;;;2.08;1.70;;;;;;;16.36;100.00;92347.59;2138286;27;20078;-68
2022/09/14 00:24:26;;;;;;;1.98;1.70;;;;;;;16.33;100.00;92343.16;2139839;27;20026;-66
2022/09/14 00:25:27;;;;;;;3.15;1.75;;;;;;;16.34;100.00;92346.59;2137197;27;20023;-69
2022/09/14 00:26:28;;;;;;;4.60;2.03;;;;;;;16.35;100.00;92345.38;2136980;27;20033;-67
2022/09/14 00:27:29;;;;;;;3.22;2.00;;;;;;;16.32;100.00;92336.25;2137005;27;20026;-69
2022/09/14 00:28:36;;;;;;;1.83;1.73;;;;;;;16.36;100.00;92336.06;2138866;27;20022;-69
2022/09/14 00:29:37;;;;;;;1.95;1.80;;;;;;;16.32;100.00;92333.56;2139646;27;20091;-67
2022/09/14 00:30:40;;;;;;;3.53;2.03;;;;;;;16.50;100.00;92340.66;2139141;27;20332;-67
2022/09/14 00:31:41;;;;;;;5.72;1.80;;;;;;;16.42;100.00;92336.13;2139351;27;20041;-68
2022/09/14 00:32:42;;;;;;;2.20;2.00;;;;;;;16.37;100.00;92337.53;2139674;27;20030;-66
2022/09/14 00:33:46;;;;;;;3.75;1.95;;;;;;;16.32;100.00;92338.22;2138224;27;20055;-67
2022/09/14 00:34:47;;;;;;;2.20;1.88;;;;;;;16.35;100.00;92338.03;2138434;27;20349;-66
2022/09/14 00:35:48;;;;;;;3.13;2.17;;;;;;;16.47;100.00;92352.41;2135465;27;20037;-67
2022/09/14 00:36:50;;;;;;;2.38;1.70;;;;;;;16.34;100.00;92341.19;2137934;27;20113;-68
2022/09/14 00:37:52;;;;;;;1.95;1.70;;;;;;;16.32;100.00;92338.22;2139231;27;20460;-67
2022/09/14 00:38:55;;;;;;;3.63;2.53;;;;;;;16.30;100.00;92333.31;2138663;27;20030;-67
2022/09/14 00:39:56;;;;;;;2.00;1.90;;;;;;;16.29;100.00;92339.19;2134896;27;20077;-66
2022/09/14 00:40:59;;;;;;;6.65;2.25;;;;;;;16.30;100.00;92341.41;2123697;27;20809;-67
2022/09/14 00:41:59;;;;;;;2.05;1.90;;;;;;;16.28;100.00;92337.66;2124843;27;20088;-67
2022/09/14 00:43:01;;;;;;;3.63;2.08;;;;;;;16.24;100.00;92326.34;2135607;27;20092;-65
2022/09/14 00:44:11;;;;;;;2.58;1.88;;;;;;;16.26;100.00;92334.72;2135387;27;20019;-67
2022/09/14 00:45:14;;;;;;;;;;;;;;;16.26;100.00;92332.03;2137510;27;20018;-67
2022/09/14 00:46:14;;;;;;;2.78;1.95;;;;;;;16.25;100.00;92328.59;2137821;27;19914;-67
2022/09/14 00:47:16;;;;;;;2.00;1.90;;;;;;;16.28;100.00;92326.88;2138189;27;20029;-67
2022/09/14 00:48:18;;;;;;;2.72;2.00;;;;;;;16.23;100.00;92330.25;2139636;27;20030;-67
2022/09/14 00:49:24;;;;;;;2.75;1.85;;;;;;;16.26;100.00;92326.63;2138193;27;20022;-67
2022/09/14 00:50:25;;;;;;;6.72;2.17;;;;;;;16.25;100.00;92328.59;2122016;27;20034;-69
2022/09/14 00:51:29;;;;;;;3.10;1.88;;;;;;;16.28;100.00;92334.97;2122022;27;20468;-66
2022/09/14 00:52:34;;;;;;;3.13;2.15;;;;;;;16.28;100.00;92326.88;2139000;27;20030;-66
2022/09/14 00:53:35;;;;;;;2.38;2.10;;;;;;;16.29;100.00;92333.78;2136558;27;20496;-66
2022/09/14 00:54:42;;;;;;;4.00;2.28;;;;;;;16.29;100.00;92329.13;2138354;27;20039;-68
2022/09/14 00:55:44;;;;;;;3.40;2.13;;;;;;;16.33;100.00;92329.66;2135209;27;20043;-68
2022/09/14 00:56:46;;;;;;;2.50;2.10;;;;;;;16.31;100.00;92331.34;2138526;27;20026;-66
2022/09/14 00:57:51;;;;;;;2.47;2.22;;;;;;;16.29;100.00;92328.38;2123387;27;20031;-66
2022/09/14 00:58:54;;;;;;;5.05;2.10;;;;;;;16.31;100.00;92325.94;2122172;27;20031;-68
2022/09/14 00:59:55;;;;;;;4.55;1.80;;;;;;;16.31;100.00;92329.38;2134720;27;20023;-66
2022/09/14 01:00:57;;;;;;;3.53;2.05;;;;;;;16.25;100.00;92335.94;2125463;27;20027;-66
2022/09/14 01:02:04;;;;;;;3.08;1.85;;;;;;;16.24;100.00;92335.19;2121704;27;20480;-68
2022/09/14 01:03:05;;;;;;;2.88;1.70;;;;;;;16.33;100.00;92328.91;2136434;27;20057;-67
2022/09/14 01:04:12;;;;;;;4.55;2.22;;;;;;;16.31;100.00;92324.00;2136638;27;20489;-69
2022/09/14 01:05:19;;;;;;;4.53;1.67;;;;;;;16.60;100.00;92339.31;2134343;27;20060;-67
2022/09/14 01:06:42;;;;;;;3.97;1.63;;;;;;;16.43;100.00;92332.22;2137590;27;20055;-66
2022/09/14 01:08:16;;;;;;;2.08;1.60;;;;;;;16.42;100.00;92336.91;2137208;27;20022;-67
2022/09/14 01:09:26;;;;;;;5.13;1.98;;;;;;;16.33;100.00;92332.38;2137989;27;20018;-67
2022/09/14 01:10:39;;;;;;;2.95;1.90;;;;;;;16.24;100.00;92321.72;2137494;27;20026;-67
2022/09/14 01:12:10;;;;;;;4.43;2.38;;;;;;;16.49;100.00;92325.69;2139413;27;20029;-67
2022/09/14 01:13:28;;;;;;;4.78;2.28;;;;;;;16.75;100.00;92325.03;2135226;27;20027;-67
2022/09/14 01:14:44;;;;;;;4.47;1.88;;;;;;;16.79;100.00;92320.16;2137532;27;20037;-67
2022/09/14 01:15:53;;;;;;;5.13;1.80;;;;;;;16.76;100.00;92323.81;2136393;27;20032;-69
2022/09/14 01:17:07;;;;;;;5.82;1.90;;;;;;;16.77;100.00;92312.56;2135390;27;20030;-67
2022/09/14 01:18:14;;;;;;;3.67;2.28;;;;;;;16.81;100.00;92317.72;2135003;27;20049;-69
2022/09/14 01:19:29;;;;;;;7.55;2.42;;;;;;;17.21;100.00;92313.44;2135779;27;20033;-67
2022/09/14 01:20:36;;;;;;;5.97;1.98;;;;;;;17.48;100.00;92315.66;2135612;27;20034;-67
2022/09/14 01:21:40;;;;;;;5.72;2.20;;;;;;;17.44;100.00;92319.81;2135917;27;20022;-70
2022/09/14 01:23:11;;;;;;;7.10;2.53;;;;;;;17.71;100.00;92307.72;2135424;27;20030;-67
2022/09/14 01:24:17;;;;;;;;;;;;;;;17.85;100.00;92304.88;2100609;28;20586;-67
2022/09/14 01:25:39;;;;;;;5.93;2.30;;;;;;;17.86;100.00;92302.91;2099452;28;20010;-67
2022/09/14 01:27:10;;;;;;;4.88;1.67;;;;;;;18.14;100.00;92307.78;2137140;27;20018;-67
2022/09/14 01:28:20;;;;;;;4.05;2.00;;;;;;;18.26;100.00;92310.06;2133128;27;20029;-67
2022/09/14 01:29:37;;;;;;;4.47;2.10;;;;;;;18.32;100.00;92307.38;2115533;27;20023;-67
2022/09/14 01:30:42;;;;;;;4.93;2.05;;;;;;;18.28;100.00;92307.59;2123590;27;20461;-67
2022/09/14 01:32:01;;;;;;;4.13;1.98;;;;;;;18.25;100.00;92310.53;2133308;27;20448;-67
2022/09/14 01:33:17;;;;;;;8.00;2.30;;;;;;;18.23;100.00;92308.31;2137517;27;20049;-68
2022/09/14 01:34:25;;;;;;;7.57;1.92;;;;;;;18.22;100.00;92312.25;2135999;27;20380;-67
2022/09/14 01:35:31;;;;;;;8.32;2.67;;;;;;;18.41;100.00;92314.56;2138774;27;20041;-68
2022/09/14 01:36:35;;;;;;;6.72;2.13;;;;;;;18.36;100.00;92322.16;2137158;27;20344;-68
2022/09/14 01:37:41;;;;;;;4.35;2.10;;;;;;;18.46;100.00;92317.28;2138526;27;20040;-67
2022/09/14 01:38:52;;;;;;;4.65;2.03;;;;;;;18.42;100.00;92326.84;2133652;27;20026;-68
2022/09/14 01:40:08;;;;;;;7.32;2.50;;;;;;;18.53;100.00;92321.50;2135613;27;20018;-66
2022/09/14 01:41:13;;;;;;;6.85;2.03;;;;;;;18.75;100.00;92324.31;2123670;27;20120;-67
2022/09/14 01:42:17;;;;;;;7.80;2.20;;;;;;;18.75;100.00;92329.00;2125876;27;20110;-65
2022/09/14 01:43:31;;;;;;;7.57;2.15;;;;;;;18.99;100.00;92326.59;2136984;27;20030;-66
2022/09/14 01:44:36;;;;;;;7.70;2.63;;;;;;;19.00;100.00;92319.94;2137455;27;20022;-66
2022/09/14 01:45:41;;;;;;;3.78;2.10;;;;;;;18.77;100.00;92316.44;2136724;27;20022;-66
2022/09/14 01:46:47;;;;;;;7.18;2.00;;;;;;;18.70;100.00;92324.28;2134997;27;20022;-67
2022/09/14 01:47:55;;;;;;;5.38;2.30;;;;;;;18.67;100.00;92319.81;2137669;27;20069;-68
2022/09/14 01:49:17;;;;;;;8.43;1.80;;;;;;;18.61;100.00;92317.06;2136542;27;20057;-66
2022/09/14 01:50:24;;;;;;;6.82;2.30;;;;;;;18.44;100.00;92316.25;2136419;27;20026;-68
2022/09/14 01:51:39;;;;;;;4.53;1.80;;;;;;;18.37;100.00;92314.78;2138007;27;20026;-66
2022/09/14 01:53:04;;;;;;;4.47;2.38;;;;;;;18.26;100.00;92312.75;2135977;27;20572;-66
2022/09/14 01:54:29;;;;;;;4.65;1.90;;;;;;;18.11;100.00;92309.47;2136159;27;20400;-70
2022/09/14 01:55:40;;;;;;;5.05;2.25;;;;;;;18.09;100.00;92309.22;2137346;27;20452;-67
2022/09/14 01:56:50;;;;;;;8.85;2.40;;;;;;;18.20;100.00;92306.56;2134354;27;20062;-66
2022/09/14 01:57:58;;;;;;;6.55;2.20;;;;;;;18.12;100.00;92308.25;2139050;27;20050;-68
2022/09/14 01:59:09;;;;;;;6.88;2.20;;;;;;;17.95;100.00;92312.81;2136423;27;20718;-66
2022/09/14 02:00:16;;;;;;;5.65;2.20;;;;;;;17.85;100.00;92301.44;2138296;27;20046;-66
2022/09/14 02:01:29;;;;;;;5.97;2.00;;;;;;;17.79;100.00;92298.72;2134490;27;20138;-67
2022/09/14 02:02:42;;;;;;;7.88;2.35;;;;;;;17.81;100.00;92306.34;2134380;27;20113;-66
2022/09/14 02:04:00;;;;;;;4.20;2.17;;;;;;;17.67;100.00;92312.59;2136057;27;20117;-67
2022/09/14 02:05:30;;;;;;;6.07;2.55;;;;;;;17.68;100.00;92314.06;2135268;27;20022;-67
2022/09/14 02:06:36;;;;;;;4.82;2.10;;;;;;;17.80;100.00;92313.72;2122052;27;20460;-67
2022/09/14 02:07:37;;;;;;;8.70;2.33;;;;;;;17.84;100.00;92319.63;2138224;27;20057;-66
2022/09/14 02:08:38;;;;;;;9.82;2.40;;;;;;;17.83;100.00;92315.47;2139060;27;20360;-67
2022/09/14 02:09:40;;;;;;;4.45;2.40;;;;;;;17.80;100.00;92323.78;2136228;27;20442;-66
2022/09/14 02:10:41;;;;;;;5.03;1.70;;;;;;;17.75;100.00;92321.78;2134186;27;20363;-67
2022/09/14 02:11:42;;;;;;;5.30;2.00;;;;;;;17.73;100.00;92316.81;2136440;27;20033;-67
2022/09/14 02:12:44;;;;;;;6.75;2.15;;;;;;;17.75;100.00;92321.78;2136162;27;20026;-66
2022/09/14 02:13:45;;;;;;;4.82;2.25;;;;;;;17.82;100.00;92319.38;2137479;27;20022;-67
2022/09/14 02:14:48;;;;;;;4.78;2.30;;;;;;;17.75;100.00;92309.00;2136488;27;20045;-68
2022/09/14 02:15:49;;;;;;;5.60;2.60;;;;;;;17.72;100.00;92312.63;2135231;27;20026;-67
2022/09/14 02:16:50;;;;;;;4.95;2.20;;;;;;;17.72;100.00;92309.94;2137471;27;20030;-68
2022/09/14 02:17:52;;;;;;;9.38;3.72;;;;;;;17.68;100.00;92306.72;2137560;27;20064;-69
2022/09/14 02:18:53;;;;;;;8.90;5.35;;;;;;;17.70;100.00;92311.66;2134582;27;20083;-67
2022/09/14 02:19:57;;;;;;;4.35;2.00;;;;;;;17.92;100.00;92305.69;2134565;27;20448;-66
2022/09/14 02:21:07;;;;;;;10.95;2.70;;;;;;;18.08;100.00;92299.63;2122892;27;20027;-66
2022/09/14 02:22:08;;;;;;;8.35;2.28;;;;;;;18.20;100.00;92301.16;2123365;27;20015;-66
2022/09/14 02:23:09;;;;;;;4.85;2.10;;;;;;;18.05;100.00;92306.00;2137892;27;20026;-67
2022/09/14 02:24:11;;;;;;;6.10;2.67;;;;;;;18.00;100.00;92299.34;2136516;27;20082;-66
2022/09/14 02:25:12;;;;;;;8.05;2.42;;;;;;;17.91;100.00;92296.06;2137519;27;20053;-66
2022/09/14 02:26:14;;;;;;;11.40;2.15;;;;;;;17.83;100.00;92298.50;2136463;27;20478;-65
2022/09/14 02:27:15;;;;;;;5.10;2.17;;;;;;;17.77;100.00;92300.41;2135239;27;20046;-68
2022/09/14 02:28:16;;;;;;;6.70;2.63;;;;;;;17.78;100.00;92296.47;2136426;27;20036;-66
2022/09/14 02:29:17;;;;;;;11.82;2.85;;;;;;;17.69;100.00;92300.09;2135563;27;20029;-66
2022/09/14 02:30:19;;;;;;;7.70;2.67;;;;;;;17.55;100.00;92299.00;2138976;27;20038;-66
2022/09/14 02:32:01;;;;;;;9.73;2.25;;;;;;;17.53;100.00;92289.91;2134573;27;20014;-66
2022/09/14 02:33:18;;;;;;;10.60;2.75;;;;;;;17.68;100.00;92298.59;2135896;27;20094;-67
2022/09/14 02:35:12;;;;;;;3.63;2.17;;;;;;;17.46;100.00;92296.47;2135740;27;20075;-66
2022/09/14 02:36:34;;;;;;;7.80;2.40;;;;;;;17.44;100.00;92292.78;2108280;28;20028;-67
2022/09/14 02:38:01;;;;;;;9.25;2.97;;;;;;;17.42;100.00;92293.25;2105906;28;20031;-66
2022/09/14 02:39:25;;;;;;;5.43;2.28;;;;;;;17.42;100.00;92290.53;2137738;27;20022;-68
2022/09/14 02:40:36;;;;;;;6.10;2.25;;;;;;;17.39;100.00;92293.47;2137845;27;20121;-67
2022/09/14 02:42:14;;;;;;;4.30;2.15;;;;;;;17.27;100.00;92292.63;2137555;27;20105;-66
2022/09/14 02:43:55;;;;;;;5.22;2.45;;;;;;;17.19;100.00;92292.31;2135014;27;20114;-67
2022/09/14 02:45:06;;;;;;;5.03;2.97;;;;;;;17.25;100.00;92295.06;2105473;27;20043;-69
2022/09/14 02:46:27;;;;;;;9.80;2.75;;;;;;;17.30;100.00;92287.03;2136684;27;20051;-67
2022/09/14 02:47:39;;;;;;;5.65;2.53;;;;;;;17.15;100.00;92283.69;2135293;27;20648;-69
2022/09/14 02:48:53;;;;;;;9.18;2.90;;;;;;;17.08;100.00;92282.16;2135434;27;20030;-66
2022/09/14 02:50:19;;;;;;;6.70;2.88;;;;;;;17.04;100.00;92283.59;2136700;27;20030;-68
2022/09/14 02:51:26;;;;;;;10.13;2.70;;;;;;;17.13;100.00;92283.44;2136806;27;20366;-68
2022/09/14 02:52:33;;;;;;;9.05;2.83;;;;;;;17.14;100.00;92284.19;2137299;27;20074;-66
2022/09/14 02:53:56;;;;;;;9.05;2.92;;;;;;;17.06;100.00;92284.59;2138081;27;20026;-66
2022/09/14 02:55:08;;;;;;;4.00;2.30;;;;;;;17.02;100.00;92278.66;2135453;27;20030;-69
2022/09/14 02:56:10;;;;;;;5.13;2.45;;;;;;;17.16;100.00;92282.47;2137418;27;20039;-66
2022/09/14 02:57:11;;;;;;;5.47;3.25;;;;;;;17.11;100.00;92283.91;2134048;27;20022;-66
2022/09/14 02:58:13;;;;;;;7.28;2.92;;;;;;;17.09;100.00;92285.63;2137381;27;20029;-67
2022/09/14 02:59:15;;;;;;;6.05;2.97;;;;;;;17.03;100.00;92287.50;2138870;27;20523;-67
2022/09/14 03:00:16;;;;;;;6.85;2.92;;;;;;;17.02;100.00;92286.75;2136630;27;20113;-67
2022/09/14 03:01:19;;;;;;;7.75;2.42;;;;;;;17.01;100.00;92284.56;2125009;27;20022;-67
2022/09/14 03:02:21;;;;;;;5.78;2.80;;;;;;;16.92;100.00;92290.84;2125701;27;20131;-66
2022/09/14 03:03:22;;;;;;;5.43;2.70;;;;;;;16.92;100.00;92285.44;2136464;27;20023;-68
2022/09/14 03:04:23;;;;;;;5.88;2.53;;;;;;;16.89;100.00;92291.06;2138013;27;20034;-66
2022/09/14 03:05:24;;;;;;;9.00;2.95;;;;;;;16.85;100.00;92285.88;2137388;27;20034;-67
2022/09/14 03:06:25;;;;;;;5.32;2.65;;;;;;;16.82;100.00;92289.53;2134621;27;20113;-69
2022/09/14 03:07:26;;;;;;;12.25;3.00;;;;;;;16.77;100.00;92288.25;2137687;27;20102;-66
2022/09/14 03:08:27;;;;;;;7.53;2.72;;;;;;;16.72;100.00;92288.16;2137069;27;20840;-66
2022/09/14 03:09:28;;;;;;;9.52;3.03;;;;;;;16.73;100.00;92284.28;2137668;27;20049;-66
2022/09/14 03:10:30;;;;;;;4.32;2.50;;;;;;;16.72;100.00;92283.53;2133147;27;20093;-66
2022/09/14 03:11:32;;;;;;;13.45;3.42;;;;;;;16.67;100.00;92281.47;2137278;27;20045;-66
2022/09/14 03:12:33;;;;;;;9.65;3.30;;;;;;;16.67;100.00;92286.13;2134075;27;20060;-68
2022/09/14 03:13:35;;;;;;;8.88;2.65;;;;;;;16.68;100.00;92282.97;2136240;27;20487;-66
2022/09/14 03:14:36;;;;;;;6.65;3.10;;;;;;;16.66;100.00;92284.66;2135330;27;20117;-66
2022/09/14 03:15:37;;;;;;;7.10;2.95;;;;;;;16.72;100.00;92291.63;2136216;27;20022;-67
2022/09/14 03:16:38;;;;;;;5.03;2.78;;;;;;;16.70;100.00;92287.91;2136713;27;20018;-69
2022/09/14 03:17:44;;;;;;;7.57;2.72;;;;;;;16.67;100.00;92278.78;2138275;27;20087;-66
2022/09/14 03:18:45;;;;;;;8.57;3.03;;;;;;;16.70;100.00;92282.50;2134504;27;20062;-66
2022/09/14 03:19:46;;;;;;;5.43;3.08;;;;;;;16.83;100.00;92286.34;2137578;27;20035;-66
2022/09/14 03:20:47;;;;;;;4.45;2.80;;;;;;;16.83;100.00;92286.34;2135430;27;20023;-66
2022/09/14 03:21:48;;;;;;;8.27;3.05;;;;;;;16.80;100.00;92283.84;2137388;27;20397;-66
2022/09/14 03:22:49;;;;;;;6.22;3.22;;;;;;;16.89;100.00;92286.41;2137712;27;20023;-67
2022/09/14 03:23:54;;;;;;;7.32;2.90;;;;;;;16.95;100.00;92272.97;2139695;27;20030;-66
2022/09/14 03:24:54;;;;;;;6.63;3.17;;;;;;;17.09;100.00;92267.44;2139087;27;20022;-66
2022/09/14 03:25:55;;;;;;;10.63;3.60;;;;;;;17.07;100.00;92264.47;2137639;27;20685;-66
2022/09/14 03:26:56;;;;;;;5.88;3.35;;;;;;;17.14;100.00;92268.72;2136847;27;20026;-69
2022/09/14 03:27:58;;;;;;;6.82;3.38;;;;;;;17.02;100.00;92259.03;2139155;27;20022;-68
2022/09/14 03:28:59;;;;;;;6.47;2.92;;;;;;;17.09;100.00;92266.72;2134543;27;20023;-66
2022/09/14 03:30:00;;;;;;;6.95;3.15;;;;;;;17.08;100.00;92263.28;2138382;27;20034;-66
2022/09/14 03:31:04;;;;;;;5.55;3.00;;;;;;;17.03;100.00;92269.38;2139000;27;20515;-66
2022/09/14 03:32:05;;;;;;;6.70;2.90;;;;;;;16.97;100.00;92270.53;2138891;27;20058;-66
2022/09/14 03:33:06;;;;;;;6.20;2.60;;;;;;;16.92;100.00;92274.66;2139390;27;20028;-66
2022/09/14 03:34:09;;;;;;;6.53;3.05;;;;;;;16.95;100.00;92262.16;2139012;27;20049;-66
2022/09/14 03:35:10;;;;;;;5.85;2.70;;;;;;;17.01;100.00;92266.38;2135365;27;20049;-66
2022/09/14 03:36:15;;;;;;;6.60;2.50;;;;;;;17.23;100.00;92252.34;2139583;27;20082;-66
2022/09/14 03:37:16;;;;;;;4.05;2.67;;;;;;;17.31;100.00;92252.66;2139597;27;20030;-66
2022/09/14 03:38:17;;;;;;;6.63;2.95;;;;;;;17.21;100.00;92245.91;2138940;27;20051;-68
2022/09/14 03:39:18;;;;;;;7.28;2.83;;;;;;;17.25;100.00;92233.72;2137218;27;20025;-66
2022/09/14 03:40:19;;;;;;;8.18;2.80;;;;;;;17.37;100.00;92248.75;2139578;27;20018;-68
2022/09/14 03:41:22;;;;;;;6.88;2.33;;;;;;;17.29;100.00;92255.06;2139814;27;20483;-67
2022/09/14 03:42:23;;;;;;;6.97;3.05;;;;;;;17.19;100.00;92240.28;2139418;27;20083;-65
2022/09/14 03:43:25;;;;;;;5.65;2.55;;;;;;;17.19;100.00;92251.06;2138409;27;20090;-66
2022/09/14 03:44:26;;;;;;;3.75;2.58;;;;;;;17.17;100.00;92246.16;2137457;27;20025;-66
2022/09/14 03:45:27;;;;;;;6.28;2.42;;;;;;;17.31;100.00;92258.06;2135399;27;20110;-65
2022/09/14 03:46:28;;;;;;;3.25;2.55;;;;;;;17.39;100.00;92266.47;2125556;27;20055;-66
2022/09/14 03:47:30;;;;;;;5.50;2.65;;;;;;;17.66;100.00;92267.88;2121799;27;20076;-68
2022/09/14 03:48:32;;;;;;;6.95;2.50;;;;;;;17.55;100.00;92273.94;2137323;27;20111;-67
2022/09/14 03:49:33;;;;;;;5.05;2.42;;;;;;;17.51;100.00;92276.84;2139465;27;20045;-66
2022/09/14 03:50:34;;;;;;;4.68;2.30;;;;;;;17.42;100.00;92270.88;2135613;27;20346;-68
2022/09/14 03:51:35;;;;;;;6.68;2.50;;;;;;;17.30;100.00;92278.94;2139664;27;20037;-68
2022/09/14 03:52:36;;;;;;;6.50;2.55;;;;;;;17.31;100.00;92290.47;2137466;27;20105;-67
2022/09/14 03:53:37;;;;;;;8.95;2.30;;;;;;;17.29;100.00;92301.72;2136710;27;20452;-66
2022/09/14 03:54:39;;;;;;;4.68;2.30;;;;;;;17.27;100.00;92314.25;2137499;27;20022;-67
2022/09/14 03:55:40;;;;;;;3.83;2.40;;;;;;;17.28;100.00;92294.84;2139554;27;20026;-67
2022/09/14 03:56:41;;;;;;;3.92;2.28;;;;;;;17.09;100.00;92291.75;2135491;27;20109;-66
2022/09/14 03:57:42;;;;;;;4.38;2.38;;;;;;;17.02;100.00;92289.47;2135538;27;20605;-67
2022/09/14 03:58:44;;;;;;;8.48;2.75;;;;;;;17.03;100.00;92295.59;2136736;27;20026;-68
2022/09/14 03:59:45;;;;;;;6.43;2.70;;;;;;;16.99;100.00;92287.75;2139262;27;20486;-66
2022/09/14 04:00:46;;;;;;;6.35;2.13;;;;;;;16.88;100.00;92281.47;2137739;27;20038;-68
2022/09/14 04:01:47;;;;;;;6.38;2.05;;;;;;;17.04;100.00;92283.59;2136547;27;20026;-66
2022/09/14 04:02:48;;;;;;;10.77;2.50;;;;;;;16.92;100.00;92282.75;2137310;27;20428;-67
2022/09/14 04:03:49;;;;;;;5.00;2.58;;;;;;;16.89;100.00;92278.28;2135488;27;20026;-66
2022/09/14 04:04:51;;;;;;;7.30;2.20;;;;;;;16.86;100.00;92276.56;2128400;27;20027;-68
2022/09/14 04:05:55;;;;;;;4.35;2.22;;;;;;;16.74;100.00;92278.41;2127234;27;20027;-69
2022/09/14 04:06:56;;;;;;;3.80;1.92;;;;;;;16.69;100.00;92273.66;2135899;27;20073;-67
2022/09/14 04:07:57;;;;;;;3.83;2.20;;;;;;;16.61;100.00;92267.94;2135762;27;20444;-67
2022/09/14 04:08:58;;;;;;;4.75;2.50;;;;;;;16.60;100.00;92271.13;2136090;27;20371;-68
2022/09/14 04:09:59;;;;;;;3.60;2.22;;;;;;;16.53;100.00;92272.25;2136033;27;20030;-66
2022/09/14 04:11:10;;;;;;;5.53;2.10;;;;;;;16.47;100.00;92279.56;2135469;27;20066;-65
2022/09/14 04:12:10;;;;;;;2.83;2.00;;;;;;;16.42;100.00;92276.78;2135263;27;20026;-67
2022/09/14 04:13:13;;;;;;;3.45;2.08;;;;;;;16.46;100.00;92271.94;2135442;27;20503;-67
2022/09/14 04:14:14;;;;;;;6.30;2.58;;;;;;;16.46;100.00;92277.31;2135511;27;20022;-66
2022/09/14 04:15:16;;;;;;;5.43;1.85;;;;;;;16.42;100.00;92279.47;2134945;27;20436;-69
2022/09/14 04:16:21;;;;;;;4.53;2.10;;;;;;;16.41;100.00;92278.75;2135305;27;20027;-67
2022/09/14 04:17:23;;;;;;;5.03;2.08;;;;;;;16.42;100.00;92285.63;2135482;27;20034;-67
2022/09/14 04:18:26;;;;;;;6.50;2.05;;;;;;;16.45;100.00;92281.97;2135406;27;20034;-68
2022/09/14 04:19:27;;;;;;;3.75;1.60;;;;;;;16.49;100.00;92282.50;2135242;27;20061;-68
2022/09/14 04:20:28;;;;;;;4.43;1.65;;;;;;;16.51;100.00;92279.38;2134450;27;20745;-67
2022/09/14 04:21:28;;;;;;;5.68;1.55;;;;;;;16.46;100.00;92283.47;2126082;27;20030;-69
2022/09/14 04:22:29;;;;;;;4.85;1.67;;;;;;;16.41;100.00;92281.44;2126028;27;20029;-67
2022/09/14 04:23:31;;;;;;;1.92;1.30;;;;;;;16.46;100.00;92283.47;2135249;27;20070;-67
2022/09/14 04:24:32;;;;;;;5.03;1.55;;;;;;;16.43;100.00;92281.72;2135262;27;20539;-68
2022/09/14 04:25:33;;;;;;;4.60;1.80;;;;;;;16.39;100.00;92281.19;2134354;27;20018;-67
2022/09/14 04:26:34;;;;;;;3.00;1.75;;;;;;;16.45;100.00;92273.16;2135468;27;20075;-67
2022/09/14 04:27:35;;;;;;;3.78;1.40;;;;;;;16.41;100.00;92267.22;2134958;27;20041;-68
2022/09/14 04:28:35;;;;;;;3.30;1.27;;;;;;;16.40;100.00;92268.44;2135443;27;20033;-67
2022/09/14 04:29:36;;;;;;;3.65;1.40;;;;;;;16.45;100.00;92273.16;2135097;27;20096;-67
2022/09/14 04:30:37;;;;;;;4.97;1.40;;;;;;;16.70;100.00;92279.81;2135027;27;20054;-65
2022/09/14 04:31:39;;;;;;;2.53;1.20;;;;;;;16.56;100.00;92273.28;2134400;27;20437;-67
2022/09/14 04:32:40;;;;;;;5.03;1.70;;;;;;;16.52;100.00;92272.75;2135202;27;20030;-67
2022/09/14 04:33:42;;;;;;;2.58;1.58;;;;;;;16.44;100.00;92264.31;2135222;27;20445;-68
2022/09/14 04:34:43;;;;;;;2.08;1.45;;;;;;;16.39;100.00;92262.31;2135297;27;20102;-69
2022/09/14 04:35:44;;;;;;;3.38;1.38;;;;;;;16.38;100.00;92263.53;2125761;27;20027;-67
2022/09/14 04:36:45;;;;;;;3.17;1.60;;;;;;;16.34;100.00;92257.59;2125046;27;20027;-66
2022/09/14 04:37:46;;;;;;;2.75;1.50;;;;;;;16.28;100.00;92259.47;2135301;27;20482;-66
2022/09/14 04:38:47;;;;;;;3.55;1.52;;;;;;;16.41;100.00;92259.84;2135145;27;20018;-67
2022/09/14 04:39:48;;;;;;;2.08;1.48;;;;;;;16.62;100.00;92265.97;2135275;27;20117;-69
2022/09/14 04:40:49;;;;;;;2.42;2.03;;;;;;;16.63;100.00;92264.75;2135020;27;20057;-66
2022/09/14 04:41:50;;;;;;;4.38;1.85;;;;;;;16.95;100.00;92260.22;2134472;27;20125;-68
2022/09/14 04:42:51;;;;;;;4.30;1.95;;;;;;;16.98;100.00;92261.94;2135035;27;20367;-65
2022/09/14 04:43:53;;;;;;;5.85;2.00;;;;;;;16.78;100.00;92253.91;2135206;27;20034;-68
2022/09/14 04:44:54;;;;;;;4.53;2.00;;;;;;;16.68;100.00;92256.00;2135121;27;20030;-66
2022/09/14 04:46:10;;;;;;;3.58;2.30;;;;;;;16.59;100.00;92253.44;2125548;27;20034;-65
2022/09/14 04:47:11;;;;;;;3.40;2.10;;;;;;;16.53;100.00;92252.63;2127300;27;20065;-69
2022/09/14 04:48:12;;;;;;;4.65;2.50;;;;;;;16.67;100.00;92259.91;2135199;27;20796;-68
2022/09/14 04:49:14;;;;;;;6.20;2.40;;;;;;;16.63;100.00;92262.78;2135140;27;20109;-66
2022/09/14 04:50:15;;;;;;;3.72;2.63;;;;;;;16.62;100.00;92255.91;2134800;27;20030;-67
2022/09/14 04:51:20;;;;;;;5.78;2.33;;;;;;;16.60;100.00;92257.63;2134777;27;20420;-66
2022/09/14 04:52:23;;;;;;;3.78;2.55;;;;;;;16.51;100.00;92252.38;2131588;27;20030;-67
2022/09/14 04:53:25;;;;;;;4.72;2.40;;;;;;;16.46;100.00;92259.19;2134940;27;20389;-66
2022/09/14 04:54:26;;;;;;;4.60;2.55;;;;;;;16.47;100.00;92257.25;2134955;27;20030;-66
2022/09/14 04:55:28;;;;;;;3.53;2.33;;;;;;;16.41;100.00;92259.13;2134970;27;20022;-66
2022/09/14 04:56:31;;;;;;;4.32;2.63;;;;;;;16.46;100.00;92264.59;2134909;27;20027;-66
2022/09/14 04:57:32;;;;;;;6.85;2.75;;;;;;;16.54;100.00;92256.81;2134700;27;20528;-66
2022/09/14 04:58:38;;;;;;;3.83;2.50;;;;;;;16.59;100.00;92262.28;2135075;27;20022;-66
2022/09/14 04:59:39;;;;;;;5.13;3.10;;;;;;;16.52;100.00;92265.38;2135073;27;20022;-66
2022/09/14 05:00:39;;;;;;;4.70;2.78;;;;;;;16.49;100.00;92265.59;2134655;27;20147;-69
2022/09/14 05:01:43;;;;;;;5.43;3.10;;;;;;;16.48;100.00;92264.84;2134779;27;20037;-68
2022/09/14 05:02:43;;;;;;;5.30;2.97;;;;;;;16.60;100.00;92271.84;2132253;27;20026;-65
2022/09/14 05:03:45;;;;;;;4.93;2.97;;;;;;;16.56;100.00;92263.22;2134655;27;20027;-68